Kachidoki Maru — JD2272 — position and weather

sailwx.info

Track history (hours):
 
Tides and Currents Weather Stations Pressure Air Temp Water Temp Dewpoint Dewpoint Depression Visibility Wind Speed Wind Dir Waves Ship Positions

Kachidoki Maru

Last reported at 2018-Jan-20 12:29 UTC. Time now 2018-Jan-20 16:54 UTC.
Position N 35°38' E 139°46'.

Length 38 m.

Type: Pilot. MMSI: 431101146.

Date/timePositionNaut miles runAvg speedWind from/ knotsBaromVisibWave heightAir tempDewpointWater temp
2018-Jan-20 12:29N 35°38' E 139°46'0 0.1
2018-Jan-20 11:58N 35°38' E 139°46'0 0.1
2018-Jan-20 11:29N 35°38' E 139°46'0 0.0
2018-Jan-20 10:16N 35°38' E 139°46'0 0.0
2018-Jan-20 09:51N 35°38' E 139°46'0 0.0
2018-Jan-20 09:10N 35°38' E 139°46'0 0.0
2018-Jan-20 08:49N 35°38' E 139°46'0 0.0
2018-Jan-20 08:15N 35°38' E 139°46'0 0.0
2018-Jan-20 07:46N 35°38' E 139°46'0 0.0
2018-Jan-20 07:20N 35°38' E 139°46'0 0.0
2018-Jan-20 06:48N 35°38' E 139°46'0 0.0
2018-Jan-20 00:58N 35°38' E 139°46'0 0.0
2018-Jan-20 00:17N 35°38' E 139°46'0 0.0
2018-Jan-19 23:23N 35°38' E 139°46'0 0.0
2018-Jan-19 21:18N 35°38' E 139°46'0 0.0
2018-Jan-19 21:00N 35°38' E 139°46'0 0.0
2018-Jan-19 20:30N 35°38' E 139°46'0 0.0
2018-Jan-19 20:00N 35°38' E 139°46'0 0.0
2018-Jan-19 18:47N 35°38' E 139°46'0 0.0
2018-Jan-19 12:51N 35°38' E 139°46'0 0.0
2018-Jan-19 12:26N 35°38' E 139°46'0 0.0
2018-Jan-19 12:00N 35°38' E 139°46'0 0.0
2018-Jan-19 11:29N 35°38' E 139°46'0 0.0
2018-Jan-19 11:00N 35°38' E 139°46'0 0.0
2018-Jan-19 10:28N 35°38' E 139°46'0 0.0
2018-Jan-19 09:59N 35°38' E 139°46'0 0.0
2018-Jan-19 09:30N 35°38' E 139°46'0 0.0
2018-Jan-19 08:58N 35°38' E 139°46'0 0.0
2018-Jan-19 08:30N 35°38' E 139°46'0 0.0
2018-Jan-19 08:00N 35°38' E 139°46'0 0.0
2018-Jan-19 07:30N 35°38' E 139°46'0 0.0
2018-Jan-19 07:00N 35°38' E 139°46'0 0.0
2018-Jan-19 06:30N 35°38' E 139°46'0 0.0
2018-Jan-19 06:00N 35°38' E 139°46'0 0.0
2018-Jan-19 05:07N 35°38' E 139°46'0 0.0
2018-Jan-19 05:00N 35°38' E 139°46'0 0.0
2018-Jan-19 04:23N 35°38' E 139°46'0 0.0
2018-Jan-19 03:58N 35°38' E 139°46'0 0.0
2018-Jan-19 02:56N 35°38' E 139°46'0 0.0
2018-Jan-19 02:29N 35°38' E 139°46'0 0.0
2018-Jan-19 01:56N 35°38' E 139°46'0 0.0
2018-Jan-19 01:20N 35°38' E 139°46'0 0.0
2018-Jan-19 00:54N 35°38' E 139°46'0 0.0
2018-Jan-19 00:16N 35°38' E 139°46'0 0.5
2018-Jan-19 00:00N 35°38' E 139°46'1 2.3
2018-Jan-18 23:30N 35°39' E 139°47'2 4.7
2018-Jan-18 22:58N 35°36' E 139°46'3 4.6
2018-Jan-18 22:23N 35°34' E 139°48'3 1.6
2018-Jan-18 20:41N 35°36' E 139°46'0 2.5
2018-Jan-18 20:30N 35°37' E 139°47'1 1.1
2018-Jan-18 20:00N 35°37' E 139°46'1 0.3
2018-Jan-18 16:21N 35°38' E 139°45'0 0.0
2018-Jan-18 15:58N 35°38' E 139°45'0 0.0
2018-Jan-18 15:30N 35°38' E 139°45'0 0.0
2018-Jan-18 01:52N 35°38' E 139°46'1 2.7
2018-Jan-18 01:22N 35°37' E 139°46'0 0.9
2018-Jan-18 01:00N 35°37' E 139°46'  
2018-Jan-11 22:47N 35°38' E 139°46'2 3.9
2018-Jan-11 22:23N 35°37' E 139°46'0 1.2
2018-Jan-11 21:59N 35°36' E 139°46'4 7.4
2018-Jan-11 21:30N 35°34' E 139°50'4 7.5
2018-Jan-11 20:58N 35°37' E 139°46'2 0.7
2018-Jan-11 18:28N 35°38' E 139°46'0 0.0
2018-Jan-11 16:12N 35°38' E 139°46'0 0.0
2018-Jan-11 15:55N 35°38' E 139°46'1 0.1
2018-Jan-11 09:57N 35°38' E 139°46'1 1.9
2018-Jan-11 09:16N 35°36' E 139°46'2 4.8
2018-Jan-11 08:54N 35°35' E 139°48'3 0.7
2018-Jan-11 04:49N 35°38' E 139°46'1 3.8
2018-Jan-11 04:30N 35°37' E 139°47'2 3.6
2018-Jan-11 04:00N 35°35' E 139°48'2 4.0
2018-Jan-11 03:25N 35°34' E 139°50'0 0.4
2018-Jan-11 02:50N 35°34' E 139°50'1 1.9
2018-Jan-11 02:27N 35°34' E 139°49'3 6.7
2018-Jan-11 01:59N 35°37' E 139°47'0 0.3
2018-Jan-11 01:30N 35°37' E 139°47'  
Track history (hours):
 
Tides and Currents Weather Stations Pressure Air Temp Water Temp Dewpoint Dewpoint Depression Visibility Wind Speed Wind Dir Waves Ship Positions

Kachidoki Maru

Last reported at 2018-Jan-20 12:29 UTC. Time now 2018-Jan-20 16:54 UTC.
Position N 35°38' E 139°46'.

Length 38 m.

Type: Pilot. MMSI: 431101146.

Date/timePositionNaut miles runAvg speedWind from/ knotsBaromVisibWave heightAir tempDewpointWater temp
2018-Jan-20 12:29N 35°38' E 139°46'0 0.1
2018-Jan-20 11:58N 35°38' E 139°46'0 0.1
2018-Jan-20 11:29N 35°38' E 139°46'0 0.0
2018-Jan-20 10:16N 35°38' E 139°46'0 0.0
2018-Jan-20 09:51N 35°38' E 139°46'0 0.0
2018-Jan-20 09:10N 35°38' E 139°46'0 0.0
2018-Jan-20 08:49N 35°38' E 139°46'0 0.0
2018-Jan-20 08:15N 35°38' E 139°46'0 0.0
2018-Jan-20 07:46N 35°38' E 139°46'0 0.0
2018-Jan-20 07:20N 35°38' E 139°46'0 0.0
2018-Jan-20 06:48N 35°38' E 139°46'0 0.0
2018-Jan-20 00:58N 35°38' E 139°46'0 0.0
2018-Jan-20 00:17N 35°38' E 139°46'0 0.0
2018-Jan-19 23:23N 35°38' E 139°46'0 0.0
2018-Jan-19 21:18N 35°38' E 139°46'0 0.0
2018-Jan-19 21:00N 35°38' E 139°46'0 0.0
2018-Jan-19 20:30N 35°38' E 139°46'0 0.0
2018-Jan-19 20:00N 35°38' E 139°46'0 0.0
2018-Jan-19 18:47N 35°38' E 139°46'0 0.0
2018-Jan-19 12:51N 35°38' E 139°46'0 0.0
2018-Jan-19 12:26N 35°38' E 139°46'0 0.0
2018-Jan-19 12:00N 35°38' E 139°46'0 0.0
2018-Jan-19 11:29N 35°38' E 139°46'0 0.0
2018-Jan-19 11:00N 35°38' E 139°46'0 0.0
2018-Jan-19 10:28N 35°38' E 139°46'0 0.0
2018-Jan-19 09:59N 35°38' E 139°46'0 0.0
2018-Jan-19 09:30N 35°38' E 139°46'0 0.0
2018-Jan-19 08:58N 35°38' E 139°46'0 0.0
2018-Jan-19 08:30N 35°38' E 139°46'0 0.0
2018-Jan-19 08:00N 35°38' E 139°46'0 0.0
2018-Jan-19 07:30N 35°38' E 139°46'0 0.0
2018-Jan-19 07:00N 35°38' E 139°46'0 0.0
2018-Jan-19 06:30N 35°38' E 139°46'0 0.0
2018-Jan-19 06:00N 35°38' E 139°46'0 0.0
2018-Jan-19 05:07N 35°38' E 139°46'0 0.0
2018-Jan-19 05:00N 35°38' E 139°46'0 0.0
2018-Jan-19 04:23N 35°38' E 139°46'0 0.0
2018-Jan-19 03:58N 35°38' E 139°46'0 0.0
2018-Jan-19 02:56N 35°38' E 139°46'0 0.0
2018-Jan-19 02:29N 35°38' E 139°46'0 0.0
2018-Jan-19 01:56N 35°38' E 139°46'0 0.0
2018-Jan-19 01:20N 35°38' E 139°46'0 0.0
2018-Jan-19 00:54N 35°38' E 139°46'0 0.0
2018-Jan-19 00:16N 35°38' E 139°46'0 0.5
2018-Jan-19 00:00N 35°38' E 139°46'1 2.3
2018-Jan-18 23:30N 35°39' E 139°47'2 4.7
2018-Jan-18 22:58N 35°36' E 139°46'3 4.6
2018-Jan-18 22:23N 35°34' E 139°48'3 1.6
2018-Jan-18 20:41N 35°36' E 139°46'0 2.5
2018-Jan-18 20:30N 35°37' E 139°47'1 1.1
2018-Jan-18 20:00N 35°37' E 139°46'1 0.3
2018-Jan-18 16:21N 35°38' E 139°45'0 0.0
2018-Jan-18 15:58N 35°38' E 139°45'0 0.0
2018-Jan-18 15:30N 35°38' E 139°45'0 0.0
2018-Jan-18 01:52N 35°38' E 139°46'1 2.7
2018-Jan-18 01:22N 35°37' E 139°46'0 0.9
2018-Jan-18 01:00N 35°37' E 139°46'  
2018-Jan-11 22:47N 35°38' E 139°46'2 3.9
2018-Jan-11 22:23N 35°37' E 139°46'0 1.2
2018-Jan-11 21:59N 35°36' E 139°46'4 7.4
2018-Jan-11 21:30N 35°34' E 139°50'4 7.5
2018-Jan-11 20:58N 35°37' E 139°46'2 0.7
2018-Jan-11 18:28N 35°38' E 139°46'0 0.0
2018-Jan-11 16:12N 35°38' E 139°46'0 0.0
2018-Jan-11 15:55N 35°38' E 139°46'1 0.1
2018-Jan-11 09:57N 35°38' E 139°46'1 1.9
2018-Jan-11 09:16N 35°36' E 139°46'2 4.8
2018-Jan-11 08:54N 35°35' E 139°48'3 0.7
2018-Jan-11 04:49N 35°38' E 139°46'1 3.8
2018-Jan-11 04:30N 35°37' E 139°47'2 3.6
2018-Jan-11 04:00N 35°35' E 139°48'2 4.0
2018-Jan-11 03:25N 35°34' E 139°50'0 0.4
2018-Jan-11 02:50N 35°34' E 139°50'1 1.9
2018-Jan-11 02:27N 35°34' E 139°49'3 6.7
2018-Jan-11 01:59N 35°37' E 139°47'0 0.3
2018-Jan-11 01:30N 35°37' E 139°47'  

Dump ship's entire track history